Time;durP1;ratioP1;P1;durP2;ratioP2;P2;SDS_P1;SDS_P2;PMS_P1;PMS_P2;Temp;Humidity;BMP_temperature;BMP_pressure;BME280_temperature;BME280_humidity;BME280_pressure;Samples;Min_cycle;Max_cycle;Signal;HPM_P1;HPM_P2
2022/02/01 00:01:46;;;;;;;43.38;22.95;;;;;;;;;;6213965;23;19999;-76
2022/02/01 00:04:37;;;;;;;37.95;16.83;;;;;;;;;;6213780;23;20068;-75
2022/02/01 00:07:13;;;;;;;41.30;21.77;;;;;;;;;;6212915;23;20000;-75
2022/02/01 00:10:10;;;;;;;39.70;21.90;;;;;;;;;;6187187;23;20500;-75
2022/02/01 00:12:35;;;;;;;44.63;23.00;;;;;;;;;;6211435;23;20016;-75
2022/02/01 00:36:29;;;;;;;37.78;19.98;;;;;;;;;;6213967;23;20463;-75
2022/02/01 00:38:59;;;;;;;38.72;20.02;;;77.40;2227.20;;;;;;6213397;23;20447;-76
2022/02/01 00:41:30;;;;;;;36.35;22.30;;;77.30;2227.20;;;;;;6213718;23;20120;-76
2022/02/01 00:43:56;;;;;;;43.63;21.52;;;;;;;;;;6213259;23;20001;-76
2022/02/01 00:46:22;;;;;;;37.67;20.50;;;;;;;;;;6213226;23;20376;-75
2022/02/01 00:48:48;;;;;;;38.28;21.25;;;;;;;;;;6213531;23;20000;-75
2022/02/01 00:51:14;;;;;;;36.60;20.25;;;;;;;;;;6213568;23;19993;-75
2022/02/01 00:53:42;;;;;;;39.10;21.95;;;;;;;;;;6186352;23;20023;-77
2022/02/01 00:56:09;;;;;;;42.97;23.10;;;;;;;;;;6213471;23;19996;-76
2022/02/01 00:58:35;;;;;;;44.10;25.27;;;;;;;;;;6213429;23;20020;-75
2022/02/01 01:01:01;;;;;;;50.38;25.35;;;;;;;;;;6213225;23;19993;-76
2022/02/01 01:03:27;;;;;;;58.72;26.42;;;;;;;;;;6186943;23;19993;-75
2022/02/01 01:05:53;;;;;;;47.70;26.92;;;;;;;;;;6213400;23;20063;-75
2022/02/01 01:08:19;;;;;;;50.13;28.52;;;;;;;;;;6213406;23;20039;-75
2022/02/01 01:10:46;;;;;;;48.85;25.08;;;;;;;;;;6213296;23;20067;-75
2022/02/01 01:45:58;;;;;;;85.10;42.35;;;;;;;;;;6212857;23;20086;-76
2022/02/01 01:54:13;;;;;;;35.17;21.00;;;;;;;;;;6119837;23;20398;-75
2022/02/01 01:56:39;;;;;;;70.95;39.15;;;;;;;;;;6119988;23;20081;-75
2022/02/01 01:59:07;;;;;;;91.20;47.15;;;;;;;;;;6163444;23;20012;-76
2022/02/01 02:01:34;;;;;;;82.13;44.28;;;;;;;;;;6212091;23;20340;-76
2022/02/01 02:04:02;;;;;;;63.45;32.20;;;;;;;;;;6212326;23;20001;-75
2022/02/01 02:06:31;;;;;;;53.65;29.38;;;;;;;;;;6185918;23;20023;-75
2022/02/01 02:08:58;;;;;;;52.83;30.30;;;;;;;;;;6212220;23;20055;-74
2022/02/01 02:14:21;;;;;;;59.40;32.40;;;;;;;;;;6211950;23;20004;-75
2022/02/01 02:16:47;;;;;;;79.30;47.88;;;;;;;;;;6186450;23;20005;-75
2022/02/01 02:19:13;;;;;;;67.07;42.13;;;;;;;;;;6186237;23;20134;-75
2022/02/01 02:21:40;;;;;;;78.72;46.70;;;;;;;;;;6212998;23;20427;-76
2022/02/01 02:24:07;;;;;;;85.80;47.97;;;;;;;;;;6212862;23;20158;-75
2022/02/01 02:26:33;;;;;;;58.80;34.67;;;;;;;;;;6186533;23;20008;-75
2022/02/01 02:29:02;;;;;;;64.28;40.60;;;;;;;;;;6213099;23;20025;-75
2022/02/01 02:31:28;;;;;;;65.63;38.80;;;;;;;;;;6212932;23;20087;-76
2022/02/01 02:33:58;;;;;;;68.45;40.05;;;;;;;;;;6186426;23;20493;-75
2022/02/01 02:36:24;;;;;;;68.20;41.08;;;;;;;;;;6213024;23;20502;-75
2022/02/01 02:38:59;;;;;;;72.40;46.22;;;;;;;;;;6186594;23;20007;-74
2022/02/01 02:41:35;;;;;;;63.78;40.63;;;;;;;;;;6186416;23;20000;-75
2022/02/01 02:46:48;;;;;;;78.80;47.22;;;;;;;;;;6212568;23;20087;-75
2022/02/01 02:49:17;;;;;;;73.22;43.42;;;;;;;;;;6212874;23;19997;-75
2022/02/01 02:51:43;;;;;;;77.10;47.95;;;;;;;;;;6212828;23;20339;-76
2022/02/01 02:54:11;;;;;;;72.72;43.22;;;;;;;;;;6214029;23;20000;-76
2022/02/01 02:56:37;;;;;;;73.40;46.25;;;;;;;;;;6188018;23;20028;-75
2022/02/01 02:59:04;;;;;;;73.93;45.10;;;;;;;;;;6187888;23;20321;-75
2022/02/01 03:01:30;;;;;;;67.75;42.30;;;;;;;;;;6188141;23;19997;-75
2022/02/01 03:03:56;;;;;;;71.90;42.80;;;;;;;;;;6214639;23;20004;-75
2022/02/01 03:06:22;;;;;;;72.70;46.30;;;;;;;;;;6214276;23;20324;-75
2022/02/01 03:08:48;;;;;;;73.90;47.10;;;;;;;;;;6187939;23;20024;-75
2022/02/01 03:11:16;;;;;;;75.05;45.15;;;;;;;;;;6187905;23;20004;-75
2022/02/01 03:13:47;;;;;;;64.28;43.38;;;;;;;;;;6187648;23;20017;-75
2022/02/01 03:16:30;;;;;;;65.55;42.13;;;;;;;;;;6187806;23;20001;-75
2022/02/01 03:21:40;;;;;;;63.92;35.65;;;;;;;;;;6214135;23;20011;-74
2022/02/01 03:24:07;;;;;;;55.42;36.78;;;;;;;;;;6214208;23;20008;-75
2022/02/01 03:26:33;;;;;;;64.03;37.25;;;;;;;;;;6214484;23;20044;-75
2022/02/01 03:28:59;;;;;;;74.50;43.55;;;;;;;;;;6214315;23;20007;-75
2022/02/01 03:31:25;;;;;;;61.42;40.25;;;;;;;;;;6187626;23;20443;-75
2022/02/01 03:33:51;;;;;;;67.28;41.53;;;;;;;;;;6214357;23;20002;-75
2022/02/01 03:36:17;;;;;;;62.95;39.90;;;;;;;;;;6187694;23;20000;-75
2022/02/01 03:38:43;;;;;;;56.45;36.95;;;;;;;;;;6213977;23;20454;-75
2022/02/01 03:41:09;;;;;;;67.07;39.88;;;;;;;;;;6214377;23;20029;-75
2022/02/01 03:43:35;;;;;;;58.13;35.10;;;;;;;;;;6214135;23;20003;-75
2022/02/01 03:46:01;;;;;;;57.20;36.83;;;;;;;;;;6214277;23;20012;-75
2022/02/01 03:48:27;;;;;;;46.28;31.38;;;;;;;;;;6213850;23;19997;-75
2022/02/01 03:50:53;;;;;;;53.15;35.05;;;;;;;;;;6187496;23;20527;-74
2022/02/01 03:53:19;;;;;;;78.93;43.72;;;;;;;;;;6214114;23;20013;-76
2022/02/01 03:55:45;;;;;;;63.00;39.80;;;;;;;;;;6187469;23;20332;-75
2022/02/01 03:58:11;;;;;;;55.55;36.88;;;;;;;;;;6214252;23;19992;-75
2022/02/01 04:00:37;;;;;;;74.63;44.45;;;;;;;;;;6214211;23;20054;-75
2022/02/01 04:03:04;;;;;;;69.05;41.97;;;;;;;;;;6214147;23;20301;-74
2022/02/01 04:05:33;;;;;;;49.47;31.77;;;;;;;;;;6214026;23;19996;-74
2022/02/01 04:08:00;;;;;;;60.15;32.40;;;;;;;;;;6213753;23;20529;-75
2022/02/01 04:10:26;;;;;;;61.10;35.63;;;;;;;;;;6187423;23;20092;-75
2022/02/01 04:12:52;;;;;;;64.90;33.85;;;;;;;;;;6187288;23;20478;-73
2022/02/01 04:15:25;;;;;;;58.88;33.80;;;;;;;;;;6214190;23;19992;-75
2022/02/01 04:17:51;;;;;;;48.00;28.05;;;;;;;;;;6187617;23;20000;-75
2022/02/01 04:20:17;;;;;;;53.28;30.55;;;;;;;;;;6187515;23;20012;-75
2022/02/01 04:22:43;;;;;;;58.40;32.17;;;;;;;;;;6187547;23;19997;-73
2022/02/01 04:25:09;;;;;;;54.67;31.80;;;;;;;;;;6213945;23;20066;-75
2022/02/01 04:27:37;;;;;;;58.13;34.17;;;;;;;;;;6213980;23;20000;-75
2022/02/01 04:30:08;;;;;;;58.92;34.78;;;;;;;;;;6213634;23;19996;-75
2022/02/01 04:32:42;;;;;;;69.47;38.92;;;;;;;;;;6213732;23;20008;-75
2022/02/01 04:35:08;;;;;;;;;;;;;;;;;;6214217;23;20004;-75
2022/02/01 04:37:34;;;;;;;65.97;38.88;;;;;;;;;;6213865;23;19900;-75
2022/02/01 04:40:01;;;;;;;63.78;37.58;;;;;;;;;;6187138;23;20032;-75
2022/02/01 04:42:30;;;;;;;63.53;35.35;;;;;;;;;;6213517;23;20020;-75
2022/02/01 04:44:58;;;;;;;72.90;41.15;;;;;;;;;;6213674;23;20052;-75
2022/02/01 04:47:29;;;;;;;80.55;44.85;;;;;;;;;;6213294;23;20004;-74
2022/02/01 04:49:56;;;;;;;85.53;48.38;;;;;;;;;;6186837;23;19997;-75
2022/02/01 04:52:22;;;;;;;76.50;46.38;;;;;;;;;;6213499;23;20008;-75
2022/02/01 04:54:48;;;;;;;103.93;59.00;;;;;;;;;;6213802;23;20027;-75
2022/02/01 04:57:15;;;;;;;82.72;46.85;;;;;;;;;;6213515;23;19997;-75
2022/02/01 04:59:41;;;;;;;95.93;51.20;;;;;;;;;;6213614;23;20015;-74
2022/02/01 05:02:07;;;;;;;80.40;50.08;;;;;;;;;;6213074;23;20001;-74
2022/02/01 05:04:33;;;;;;;81.35;47.85;;;;;;;;;;6213471;23;20482;-75
2022/02/01 05:07:00;;;;;;;76.47;47.50;;;;;;;;;;6213206;23;19997;-75
2022/02/01 05:09:27;;;;;;;80.90;48.67;;;;;;;;;;6186944;23;20024;-74
2022/02/01 05:11:55;;;;;;;80.07;46.67;;;;;;;;;;6186087;23;20100;-75
2022/02/01 05:14:24;;;;;;;73.72;42.50;;;;;;;;;;6213311;23;19992;-74
2022/02/01 05:22:01;;;;;;;53.42;35.40;;;;;;;;;;6212788;23;20375;-75
2022/02/01 05:24:28;;;;;;;63.58;37.83;;;;;;;;;;6212852;23;20036;-75
2022/02/01 05:26:55;;;;;;;63.65;42.22;;;;;;;;;;6213224;23;20004;-75
2022/02/01 05:29:22;;;;;;;61.38;40.40;;;;;;;;;;6213338;23;20087;-74
2022/02/01 05:31:49;;;;;;;58.78;39.15;;;;;;;;;;6186040;23;20016;-75
2022/02/01 05:34:15;;;;;;;53.50;33.40;;;;;;;;;;6186548;23;20008;-74
2022/02/01 05:36:42;;;;;;;64.65;43.58;;;;;;;;;;6213265;23;19997;-75
2022/02/01 05:39:19;;;;;;;53.40;36.90;;;;;;;;;;6186144;23;20076;-75
2022/02/01 05:41:45;;;;;;;51.33;35.35;;;;;;;;;;6212954;23;20007;-73
2022/02/01 05:44:11;;;;;;;64.45;39.95;;;;;;;;;;6212983;23;20055;-75
2022/02/01 05:46:37;;;;;;;64.80;39.63;;;;;;;;;;6213075;23;20003;-74
2022/02/01 05:49:04;;;;;;;68.38;46.00;;;;;;;;;;6213089;23;20043;-75
2022/02/01 05:51:30;;;;;;;72.57;44.58;;;;;;;;;;6212723;23;19993;-75
2022/02/01 05:53:56;;;;;;;62.63;42.90;;;;;;;;;;6186530;23;19996;-75
2022/02/01 05:56:22;;;;;;;60.65;40.08;;;;;;;;;;6186150;23;20107;-75
2022/02/01 05:58:48;;;;;;;57.55;40.35;;;;;;;;;;6186314;23;20001;-75
2022/02/01 06:01:14;;;;;;;59.20;40.50;;;;;;;;;;6212790;23;20080;-75
2022/02/01 06:03:40;;;;;;;60.70;38.95;;;;;;;;;;6213040;23;19996;-76
2022/02/01 06:06:07;;;;;;;66.30;44.83;;;;;;;;;;6213041;23;19993;-76
2022/02/01 06:08:34;;;;;;;66.72;43.33;;;;;;;;;;6212689;23;20004;-76
2022/02/01 06:11:00;;;;;;;71.70;45.97;;;;;;;;;;6212864;23;20004;-76
2022/02/01 06:13:26;;;;;;;61.40;42.42;;;;;;;;;;6186247;23;20016;-75
2022/02/01 06:15:52;;;;;;;61.10;40.90;;;;;;;;;;6213092;23;19997;-76
2022/02/01 06:18:18;;;;;;;55.28;36.78;;;;;;;;;;6212939;23;19997;-76
2022/02/01 06:20:44;;;;;;;60.10;39.22;;;;;;;;;;6186106;23;20383;-75
2022/02/01 06:23:17;;;;;;;69.63;45.60;;;;;;;;;;6212203;23;20101;-76
2022/02/01 06:25:51;;;;;;;60.42;39.28;;;;;;;;;;6212788;23;20012;-76
2022/02/01 06:28:21;;;;;;;59.75;40.35;;;;;;;;;;6213751;23;20122;-75
2022/02/01 06:30:48;;;;;;;52.75;36.13;;;;;;;;;;6188015;23;20004;-76
2022/02/01 06:33:14;;;;;;;56.63;40.03;;;;;;;;;;6214039;23;20383;-75
2022/02/01 06:35:40;;;;;;;52.67;35.33;;;;;;;;;;6214167;23;20024;-75
2022/02/01 06:38:06;;;;;;;61.00;38.20;;;;;;;;;;6188333;23;20000;-75
2022/02/01 06:40:32;;;;;;;65.03;41.95;;;;;;;;;;6214557;23;20425;-75
2022/02/01 06:42:59;;;;;;;67.05;44.03;;;;;;;;;;6214801;23;20314;-75
2022/02/01 06:45:28;;;;;;;65.88;41.72;;;;;;;;;;6214855;23;20004;-76
2022/02/01 06:47:54;;;;;;;59.08;40.35;;;;;;;;;;6214395;23;20333;-75
2022/02/01 06:50:21;;;;;;;70.22;45.25;;;;;;;;;;6187856;23;20005;-76
2022/02/01 06:52:58;;;;;;;65.88;42.53;;;;;;;;;;6214247;23;20020;-76
2022/02/01 06:58:09;;;;;;;71.85;51.70;;;;;;;;;;6214534;23;20000;-76
2022/02/01 07:00:35;;;;;;;82.07;53.75;;;;;;;;;;6187981;23;20087;-76
2022/02/01 07:03:01;;;;;;;76.47;52.17;;;;;;;;;;6213157;23;20000;-75
2022/02/01 07:05:27;;;;;;;72.40;48.30;;;;;;;;;;6213381;23;20685;-75
2022/02/01 07:07:53;;;;;;;69.05;44.40;;;;;;;;;;6212335;23;20000;-75
2022/02/01 07:10:20;;;;;;;74.20;50.30;;;;;;;;;;6213301;23;20000;-75
2022/02/01 07:12:46;;;;;;;64.60;43.88;;;;;;;;;;6212637;23;20520;-76
2022/02/01 07:15:12;;;;;;;71.65;46.25;;;;;;;;;;6186098;23;20012;-75
2022/02/01 07:18:04;;;;;;;80.28;52.10;;;;;;;;;;6212723;23;20408;-75
2022/02/01 07:20:32;;;;;;;117.05;70.97;;;;;;;;;;6206909;23;20004;-74
2022/02/01 07:22:58;;;;;;;120.32;76.28;;;;;;;;;;6213786;23;19996;-75
2022/02/01 07:25:32;;;;;;;144.20;92.80;;;;;;;;;;6214008;23;20009;-75
2022/02/01 07:27:58;;;;;;;;;;;;;;;;;;6214035;23;20043;-76
2022/02/01 07:30:24;;;;;;;164.45;98.85;;;;;;;;;;6187297;23;19899;-75
2022/02/01 07:32:54;;;;;;;131.05;88.65;;;;;;;;;;6213946;23;20044;-74
2022/02/01 07:35:22;;;;;;;161.68;101.95;;;;;;;;;;6214431;23;19993;-75
2022/02/01 07:37:48;;;;;;;139.63;97.43;;;;;;;;;;6214369;23;20001;-75
2022/02/01 07:40:14;;;;;;;154.38;107.38;;;;;;;;;;6213821;23;19996;-76
2022/02/01 07:42:40;;;;;;;165.30;110.07;;;;;;;;;;6187185;23;20001;-75
2022/02/01 07:45:07;;;;;;;182.32;125.68;;;;;;;;;;6187316;23;20087;-77
2022/02/01 07:47:34;;;;;;;166.13;112.60;;;;;;;;;;6213692;23;19996;-76
2022/02/01 07:50:00;;;;;;;163.32;112.80;;;;;;;;;;6214247;23;20020;-76
2022/02/01 07:52:26;;;;;;;146.50;102.78;;;;;;;;;;6213365;23;20009;-77
2022/02/01 07:54:52;;;;;;;156.50;106.45;;;;;;;;;;6214097;23;20054;-77
2022/02/01 07:57:18;;;;;;;159.45;106.82;;;;;;;;;;6213624;23;20001;-74
2022/02/01 07:59:44;;;;;;;173.52;118.63;;;;;;;;;;6187147;23;20131;-76
2022/02/01 08:02:22;;;;;;;183.55;132.45;;;;;;;;;;6214089;23;19997;-75
2022/02/01 08:04:49;;;;;;;181.75;125.45;;;;;;;;;;6213881;23;20457;-76
2022/02/01 08:07:20;;;;;;;171.60;121.68;;;;;;;;;;6213999;23;20001;-76
2022/02/01 08:09:49;;;;;;;178.93;125.30;;;;;;;;;;6213552;23;20004;-75
2022/02/01 08:18:19;;;;;;;153.55;109.55;;;;;;;;;;6213035;23;20088;-78
2022/02/01 08:20:54;;;;;;;152.80;106.25;;;;;;;;;;6213959;23;19993;-75
2022/02/01 08:23:20;;;;;;;145.50;98.00;;;;;;;;;;6186648;23;20448;-74
2022/02/01 08:25:46;;;;;;;171.23;117.53;;;;;;;;;;6186210;23;20020;-75
2022/02/01 08:28:12;;;;;;;168.52;118.10;;;;;;;;;;6187161;23;20000;-75
2022/02/01 08:30:39;;;;;;;164.95;112.85;;;;;;;;;;6186241;23;20425;-75
2022/02/01 08:33:07;;;;;;;173.23;116.32;;;;;;;;;;6213211;23;20019;-75
2022/02/01 08:35:33;;;;;;;195.73;129.38;;;;;;;;;;6212632;23;20001;-75
2022/02/01 08:37:59;;;;;;;197.07;131.20;;;;;;;;;;6187069;23;20023;-76
2022/02/01 08:40:25;;;;;;;152.77;102.72;;;;;;;;;;6213537;23;20001;-76
2022/02/01 08:42:51;;;;;;;189.32;125.25;;;;;;;;;;6213225;23;20372;-76
2022/02/01 08:45:25;;;;;;;175.07;115.22;;;;;;;;;;6186387;23;20443;-76
2022/02/01 08:47:55;;;;;;;126.07;89.60;;;;;;;;;;6213003;23;20000;-76
2022/02/01 08:50:26;;;;;;;155.75;99.57;;;;;;;;;;6213599;23;20028;-75
2022/02/01 08:52:53;;;;;;;124.25;88.32;;;;;;;;;;6212197;23;20100;-76
2022/02/01 08:55:32;;;;;;;136.20;97.28;;;;;;;;;;6213075;23;20001;-76
2022/02/01 08:57:58;;;;;;;115.15;81.80;;;;;;;;;;6213157;23;19997;-75
2022/02/01 09:00:24;;;;;;;113.53;78.25;;;;;;;;;;6185755;23;20608;-76
2022/02/01 09:02:51;;;;;;;130.27;96.97;;;;;;;;;;6212370;23;20044;-78
2022/02/01 09:05:17;;;;;;;110.25;80.07;;;;;;;;;;6212339;23;19996;-76
2022/02/01 09:07:44;;;;;;;84.25;59.40;;;;;;;;;;6212630;23;20365;-76
2022/02/01 09:10:11;;;;;;;117.03;76.20;;;;;;;;;;6212520;23;20369;-77
2022/02/01 09:12:37;;;;;;;119.97;82.88;;;;;;;;;;6185885;23;20110;-75
2022/02/01 09:15:03;;;;;;;130.35;94.28;;;;;;;;;;6211743;23;19996;-77
2022/02/01 09:17:29;;;;;;;277.48;195.02;;;;;;;;;;6211335;23;19997;-75
2022/02/01 09:19:56;;;;;;;166.18;123.38;;;;;;;;;;6213164;23;20051;-76
2022/02/01 09:22:22;;;;;;;136.48;100.72;;;;;;;;;;6185527;23;20306;-76
2022/02/01 09:24:49;;;;;;;133.90;99.50;;;;;;;;;;6185935;23;20051;-76
2022/02/01 09:27:15;;;;;;;133.68;100.28;;;;;;;;;;6212416;23;20023;-76
2022/02/01 09:29:41;;;;;;;152.55;99.70;;;;;;;;;;6211757;23;20020;-76
2022/02/01 09:32:07;;;;;;;122.82;95.28;;;;;;;;;;6184634;23;20017;-75
2022/02/01 09:34:35;;;;;;;137.73;95.75;;;;;;;;;;6212611;23;20008;-74
2022/02/01 09:37:03;;;;;;;130.65;98.75;;;;;;;;;;6213088;23;20008;-75
2022/02/01 09:39:29;;;;;;;131.38;92.75;;;;;;;;;;6213110;23;20001;-76
2022/02/01 09:41:55;;;;;;;122.05;92.88;;;;;;;;;;6185814;23;20036;-76
2022/02/01 09:44:22;;;;;;;72.50;54.67;;;;;;;;;;6212957;23;20432;-76
2022/02/01 09:46:49;;;;;;;78.45;56.15;;;;;;;;;;6212275;23;20045;-76
2022/02/01 09:49:19;;;;;;;77.15;56.45;;;;;;;;;;6212636;23;20072;-76
2022/02/01 09:51:51;;;;;;;83.50;54.78;;;;;;;;;;6185118;23;20004;-76
2022/02/01 09:54:17;;;;;;;79.10;50.53;;;;;;;;;;6211845;23;19993;-76
2022/02/01 09:56:43;;;;;;;70.82;48.30;;;;;;;;;;6213100;23;20001;-76
2022/02/01 09:59:21;;;;;;;89.05;56.85;;;;;;;;;;6212751;23;20020;-75
2022/02/01 10:01:55;;;;;;;85.35;54.83;;;;;;;;;;6213165;23;20028;-75
2022/02/01 10:04:26;;;;;;;96.03;70.20;;;;;;;;;;6214422;23;19992;-76
2022/02/01 10:06:53;;;;;;;58.00;41.60;;;;;;;;;;6215303;23;19997;-75
2022/02/01 10:09:19;;;;;;;63.10;45.88;;;;;;;;;;6213313;23;19993;-77
2022/02/01 10:11:46;;;;;;;74.63;53.47;;;;;;;;;;6214283;23;20031;-77
2022/02/01 10:14:22;;;;;;;78.15;56.17;;;;;;;;;;6188345;23;19997;-76
2022/02/01 10:16:55;;;;;;;70.43;50.15;;;;;;;;;;6214399;23;20016;-75
2022/02/01 10:19:22;;;;;;;74.82;54.10;;;;;;;;;;6213872;23;20428;-76
2022/02/01 10:21:56;;;;;;;41.33;31.90;;;;;;;;;;6214503;23;20003;-75
2022/02/01 10:24:36;;;;;;;80.10;55.58;;;;;;;;;;6214429;23;20021;-77
2022/02/01 10:27:24;;;;;;;53.30;37.63;;;;;;;;;;6214977;23;20019;-76
2022/02/01 10:30:14;;;;;;;38.67;26.70;;;;;;;;;;6214974;23;20042;-76
2022/02/01 10:38:09;;;;;;;38.70;28.27;;;;;;;;;;6215099;23;20000;-76
2022/02/01 10:40:48;;;;;;;40.05;28.27;;;;;;;;;;6214931;23;20324;-76
2022/02/01 10:43:21;;;;;;;46.15;30.25;;;;;;;;;;6214811;23;20007;-76
2022/02/01 10:45:49;;;;;;;56.22;38.63;;;;;;;;;;6187133;23;20079;-76
2022/02/01 10:48:16;;;;;;;57.20;41.53;;;;;;;;;;6188035;23;20000;-76
2022/02/01 10:50:42;;;;;;;55.63;39.45;;;;;;;;;;6212575;23;20131;-75
2022/02/01 10:53:22;;;;;;;68.53;50.10;;;;;;;;;;6186395;23;20499;-76
2022/02/01 10:55:49;;;;;;;64.97;47.30;;;;;;;;;;6213531;23;20051;-76
2022/02/01 10:58:15;;;;;;;72.35;53.67;;;;;;;;;;6187648;23;20012;-76
2022/02/01 11:00:44;;;;;;;53.25;39.65;;;;;;;;;;6214394;23;20007;-76
2022/02/01 11:03:15;;;;;;;38.58;29.40;;;;;;;;;;6213763;23;20001;-76
2022/02/01 11:05:45;;;;;;;42.50;31.30;;;;;;;;;;6213888;23;19996;-75
2022/02/01 11:08:13;;;;;;;43.58;36.28;;;;;;;;;;6187845;23;20079;-75
2022/02/01 11:10:44;;;;;;;55.53;40.40;;;;;;;;;;6187519;23;20091;-76
2022/02/01 11:13:11;;;;;;;64.00;47.40;;;;;;;;;;6213894;23;20008;-76
2022/02/01 11:15:37;;;;;;;61.97;46.92;;;;;;;;;;6213712;23;19999;-76
2022/02/01 11:18:10;;;;;;;68.60;50.90;;;;;;;;;;6213956;23;20000;-76
2022/02/01 11:20:36;;;;;;;53.83;39.92;;;;;;;;;;6214376;23;20008;-75
2022/02/01 11:23:07;;;;;;;59.42;43.42;;;;;;;;;;6187720;23;20001;-75
2022/02/01 11:25:44;;;;;;;69.85;50.13;;;;;;;;;;6187264;23;20094;-75
2022/02/01 11:28:15;;;;;;;65.43;46.58;;;;;;;;;;6187514;23;20043;-77
2022/02/01 11:30:42;;;;;;;54.83;37.30;;;;;;;;;;6214052;23;20425;-75
2022/02/01 11:33:10;;;;;;;59.33;42.22;;;;;;;;;;6214102;23;20005;-76
2022/02/01 11:35:36;;;;;;;57.75;41.30;;;;;;;;;;6214249;23;20001;-76
2022/02/01 11:38:03;;;;;;;53.05;34.50;;;;;;;;;;6213654;23;20436;-77
2022/02/01 11:40:34;;;;;;;60.67;43.40;;;;;;;;;;6214127;23;20001;-77
2022/02/01 11:43:01;;;;;;;55.92;39.90;;;;;;;;;;6187157;23;20427;-76
2022/02/01 11:45:32;;;;;;;62.60;43.00;;;;;;;;;;6213911;23;19996;-75
2022/02/01 11:47:59;;;;;;;57.03;42.03;;;;;;;;;;6213932;23;20055;-75
2022/02/01 11:50:26;;;;;;;58.97;42.28;;;;;;;;;;6213969;23;20001;-75
2022/02/01 11:52:53;;;;;;;49.13;33.63;;;;;;;;;;6187228;23;20013;-77
2022/02/01 11:55:24;;;;;;;38.90;28.70;;;;;;;;;;6187195;23;20305;-74
2022/02/01 11:57:52;;;;;;;47.95;34.92;;;;;;;;;;6187407;23;20007;-74
2022/02/01 12:00:23;;;;;;;57.55;40.50;;;;;;;;;;6187439;23;20008;-74
2022/02/01 12:02:51;;;;;;;62.15;47.50;;;;;;;;;;6187056;23;20027;-75
2022/02/01 12:05:18;;;;;;;57.72;40.45;;;;;;;;;;6213714;23;20000;-75
2022/02/01 12:08:06;;;;;;;47.20;32.80;;;;;;;;;;6186746;23;19997;-75
2022/02/01 12:10:33;;;;;;;29.58;17.65;;;;;;;;;;6189899;23;20047;-75
2022/02/01 12:13:01;;;;;;;35.42;21.48;;;;;;;;;;6187048;23;20008;-75
2022/02/01 12:15:28;;;;;;;46.75;30.15;;;;;;;;;;6213867;23;20056;-75
2022/02/01 12:17:58;;;;;;;43.00;26.80;;;;;;;;;;6213890;23;20020;-75
2022/02/01 12:20:24;;;;;;;37.55;18.40;;;;;;;;;;6213548;23;20043;-76
2022/02/01 12:22:50;;;;;;;45.00;26.00;;;;;;;;;;6213488;23;20172;-76
2022/02/01 12:25:16;;;;;;;35.33;17.90;;;;;;;;;;6186649;23;20016;-77
2022/02/01 12:27:44;;;;;;;42.58;23.85;;;;;;;;;;6213212;23;20448;-76
2022/02/01 12:30:11;;;;;;;39.38;24.27;;;;;;;;;;6186866;23;20004;-77
2022/02/01 12:32:47;;;;;;;41.28;24.48;;;;;;;;;;6186723;23;20448;-76
2022/02/01 12:35:13;;;;;;;51.90;30.55;;;;;;;;;;6186638;23;20000;-75
2022/02/01 12:37:39;;;;;;;30.92;17.58;;;;;;;;;;6186635;23;20000;-76
2022/02/01 12:40:12;;;;;;;35.88;18.10;;;;;;;;;;6213257;23;19996;-76
2022/02/01 12:42:45;;;;;;;52.35;28.80;;;;;;;;;;6213571;23;20001;-77
2022/02/01 12:47:59;;;;;;;36.35;19.67;;;;;;;;;;6213372;23;20228;-76
2022/02/01 12:50:25;;;;;;;45.03;25.25;;;;;;;;;;6213102;23;20027;-77
2022/02/01 12:52:56;;;;;;;46.08;26.83;;;;;;;;;;6213202;23;20107;-76
2022/02/01 12:55:24;;;;;;;37.50;21.20;;;;;;;;;;6213105;23;20000;-76
2022/02/01 12:57:50;;;;;;;48.83;28.42;;;;;;;;;;6186666;23;20028;-78
2022/02/01 13:00:17;;;;;;;41.90;21.65;;;;;;;;;;6186696;23;20054;-75
2022/02/01 13:02:44;;;;;;;43.30;27.27;;;;;;;;;;6212942;23;20345;-75
2022/02/01 13:05:12;;;;;;;40.28;25.25;;;;;;;;;;6213288;23;20026;-76
2022/02/01 13:21:03;;;;;;;35.88;23.80;;;;;;;;;;6213600;23;20005;-76
2022/02/01 13:23:41;;;;;;;36.85;20.02;;;;;;;;;;6186395;23;20000;-77
2022/02/01 13:26:11;;;;;;;50.88;28.98;;;;;;;;;;6186213;23;20080;-75
2022/02/01 13:28:41;;;;;;;52.88;29.33;;;;;;;;;;6212784;23;19997;-76
2022/02/01 13:31:18;;;;;;;30.33;16.55;;;;;;;;;;6186325;23;19996;-76
2022/02/01 13:33:55;;;;;;;27.50;16.40;;;;;;;;;;6186135;23;20099;-75
2022/02/01 13:36:21;;;;;;;32.13;19.40;;;;;;;;;;6212495;23;20035;-77
2022/02/01 13:38:55;;;;;;;49.30;27.17;;;;;;;;;;6212015;23;20003;-76
2022/02/01 13:41:21;;;;;;;43.60;25.15;;;;;;;;;;6212817;23;20447;-76
2022/02/01 13:43:49;;;;;;;46.13;28.45;;;;;;;;;;6213048;23;20001;-76
2022/02/01 13:46:22;;;;;;;45.22;28.83;;;;;;;;;;6212941;23;20004;-75
2022/02/01 13:48:59;;;;;;;37.67;23.83;;;;;;;;;;6213045;23;20028;-77
2022/02/01 13:51:25;;;;;;;42.25;26.75;;;;;;;;;;6186142;23;20067;-75
2022/02/01 13:54:02;;;;;;;50.97;29.17;;;;;;;;;;6186014;23;20012;-76
2022/02/01 13:56:30;;;;;;;31.08;16.42;;;;;;;;;;6212790;23;20076;-75
2022/02/01 13:59:10;;;;;;;39.03;21.27;;;;;;;;;;6212935;23;19993;-76
2022/02/01 14:01:37;;;;;;;50.53;28.85;;;;;;;;;;6186242;23;20009;-76
2022/02/01 14:04:12;;;;;;;44.42;26.95;;;;;;;;;;6184096;23;19997;-76
2022/02/01 14:06:53;;;;;;;30.13;19.23;;;;;;;;;;6186293;23;20016;-77
2022/02/01 14:35:07;;;;;;;35.55;22.95;;;;;;;;;;6212759;23;20015;-76
2022/02/01 14:38:02;;;;;;;33.17;20.85;;;;;;;;;;6212853;23;20001;-76
2022/02/01 14:44:04;;;;;;;53.67;33.90;;;;;;;;;;6212322;23;20043;-77
2022/02/01 14:46:04;;;;;;;43.15;26.63;;;;;;;;;;6200251;23;20008;-76
2022/02/01 14:48:32;;;;;;;63.70;39.85;;;;;;;;;;6212456;23;20004;-76
2022/02/01 14:50:58;;;;;;;59.65;36.85;;;;;;;;;;6214125;23;20012;-76
2022/02/01 14:53:24;;;;;;;63.60;40.38;;;;;;;;;;6187507;23;20068;-76
2022/02/01 14:55:56;;;;;;;70.72;44.47;;;;;;;;;;6213137;23;20385;-75
2022/02/01 15:04:05;;;;;;;74.75;46.92;;;;;;;;;;6214085;23;20094;-78
2022/02/01 15:12:52;;;;;;;68.80;41.95;;;;;;;;;;6170992;23;20060;-75
2022/02/01 15:14:51;;;;;;;68.97;41.83;;;;;;;;;;6197764;23;20008;-77
2022/02/01 15:17:17;;;;;;;55.67;32.50;;;;;;;;;;6214218;23;20075;-77
2022/02/01 15:19:44;;;;;;;50.58;29.38;;;;;;;;;;6187340;23;20001;-75
2022/02/01 15:22:10;;;;;;;56.50;36.78;;;;;;;;;;6214013;23;20073;-77
2022/02/01 15:24:37;;;;;;;52.75;32.95;;;;;;;;;;6187215;23;20100;-77
2022/02/01 15:27:03;;;;;;;61.70;35.60;;;;;;;;;;6214202;23;19997;-78
2022/02/01 15:29:29;;;;;;;45.28;27.38;;;;;;;;;;6213890;23;20096;-76
2022/02/01 15:31:55;;;;;;;44.67;30.50;;;;;;;;;;6187062;23;20040;-75
2022/02/01 15:34:21;;;;;;;62.88;36.88;;;;;;;;;;6214129;23;20326;-77
2022/02/01 15:36:47;;;;;;;53.67;30.77;;;;;;;;;;6187358;23;20008;-80
2022/02/01 15:58:06;;;;;;;58.85;28.02;;;;;;;;;;6213927;23;20028;-84
2022/02/01 16:00:35;;;;;;;75.82;42.72;;;;;;;;;;6213824;23;20016;-85
2022/02/01 16:03:08;;;;;;;78.60;46.95;;;;;;;;;;6187204;23;20058;-83
2022/02/01 16:05:34;;;;;;;69.93;39.25;;;;;;;;;;6213290;23;20408;-86
2022/02/01 16:08:01;;;;;;;62.47;37.05;;;;;;;;;;6214088;23;20447;-83
2022/02/01 16:10:39;;;;;;;62.83;40.20;;;;;;;;;;6214512;23;20004;-85
2022/02/01 16:13:11;;;;;;;57.30;34.50;;;;;;;;;;6188402;23;20395;-91
2022/02/01 16:15:37;;;;;;;66.90;34.47;;;;;;;;;;6188010;23;20024;-91
2022/02/01 16:18:03;;;;;;;60.47;30.38;;;;;;;;;;6214831;23;20001;-91
2022/02/01 16:20:30;;;;;;;39.95;21.73;;;;;;;;;;6188181;23;19997;-87
2022/02/01 16:22:56;;;;;;;35.80;21.75;;;;;;;;;;6213752;23;20000;-88
2022/02/01 16:25:22;;;;;;;31.67;22.25;;;;;;;;;;6187357;23;20039;-93
2022/02/01 16:27:48;;;;;;;38.22;22.10;;;;;;;;;;6215143;23;20001;-94
2022/02/01 16:30:20;;;;;;;50.50;27.00;;;;;;;;;;6187805;23;20032;-77
2022/02/01 16:32:46;;;;;;;29.33;20.73;;;;;;;;;;6213516;23;20012;-80
2022/02/01 16:35:12;;;;;;;36.75;19.25;;;;;;;;;;6187187;23;20016;-82
2022/02/01 16:37:39;;;;;;;42.75;23.63;;;;;;;;;;6187320;23;20005;-78
2022/02/01 16:40:06;;;;;;;34.25;18.92;;;;;;;;;;6186822;23;20000;-79
2022/02/01 16:42:36;;;;;;;41.53;23.60;;;;;;;;;;6213652;23;20448;-78
2022/02/01 16:45:06;;;;;;;38.17;22.30;;;;;;;;;;6187095;23;19997;-78
2022/02/01 16:47:32;;;;;;;26.48;15.95;;;;;;;;;;6187047;23;19996;-79
2022/02/01 16:49:58;;;;;;;29.90;15.25;;;;;;;;;;6213682;23;20004;-77
2022/02/01 16:52:29;;;;;;;36.38;22.75;;;;;;;;;;6213564;23;20019;-77
2022/02/01 16:55:10;;;;;;;34.35;19.67;;;;;;;;;;6186784;23;20009;-78
2022/02/01 16:57:48;;;;;;;24.83;15.85;;;;;;;;;;6186611;23;20119;-81
2022/02/01 17:00:15;;;;;;;35.53;22.63;;;;;;;;;;6187103;23;20019;-81
2022/02/01 17:02:42;;;;;;;28.52;17.85;;;;;;;;;;6213722;23;20011;-75
2022/02/01 17:05:08;;;;;;;40.83;22.63;;;;;;;;;;6186888;23;20000;-78